»·PEaware :: VRD250 KLAS-KDAL

VRD250 :: KLAS-KDAL

FLIGHT INFORMATION

Flight Status: Arrived
Operator:
Virgin America
More flights by this operator :: More flights under this callsign
Pilot: Anonymous 13363 (13363)
Aircraft: AIRBUS A320
(A320)
More flights by this aircraft type
Origin: KLAS McCarran Intl
United States
Destination: KDAL Dallas Love
United States
More flights between these airports :: More routes between these airports
Route: COWBY6 GUP TXO TURKI JFREY3
File this flight plan on PilotEdge
Remarks: INFORMATION WHISKEY CURRENT!
Altitude:
(Current/Filed)
35,000ft
Speed:
(Current/Filed)
480kts
Departed: 28-May-17 07:09 PM
Arrived: 28-May-17 09:24 PM
Distance/Time
Traveled:
924nm/2:15
Distance/Time
To Go:
Arrived

Flight Plot

Page will automatically refresh every two minutes.

Flight plan parsing failed; only flown route is shown


Map Options




Map Legend


Flown Route
Filed Route
Departure Airport
Arrival Airport
Navaid (VOR, NDB)
Fix

Horizontal Profiles

Position Reports

Time Latitude Longitude Heading Altitude Ground
Speed
28-May-17 18:51 36.085429 -115.139110 0 2149ft 0kts
28-May-17 18:52 36.085429 -115.139110 0 2149ft 0kts
28-May-17 18:53 36.085429 -115.139110 0 2149ft 0kts
28-May-17 18:54 36.085429 -115.139110 0 2149ft 0kts
28-May-17 18:55 36.085429 -115.139110 0 2149ft 0kts
28-May-17 18:56 36.085429 -115.139110 0 2149ft 0kts
28-May-17 18:57 36.085429 -115.139110 0 2149ft 0kts
28-May-17 18:58 36.085429 -115.139110 0 2149ft 0kts
28-May-17 18:59 36.085429 -115.139110 0 2149ft 0kts
28-May-17 19:00 36.085429 -115.139110 0 2149ft 0kts
28-May-17 19:01 36.084591 -115.139109 0 2149ft 0kts
28-May-17 19:02 36.084352 -115.139409 94 2149ft 0kts
28-May-17 19:03 36.084352 -115.139409 94 2149ft 0kts
28-May-17 19:04 36.084453 -115.138505 89 2149ft 10kts
28-May-17 19:05 36.084090 -115.134975 117 2149ft 17kts
28-May-17 19:06 36.079550 -115.133821 178 2149ft 12kts
28-May-17 19:07 36.078272 -115.130370 88 2149ft 10kts
28-May-17 19:08 36.078257 -115.126121 90 2149ft 17kts
28-May-17 19:09 36.078092 -115.122522 116 2149ft 0kts
28-May-17 19:10 36.077569 -115.121683 132 2149ft 12kts
28-May-17 19:11 36.076358 -115.138387 269 2150ft 147kts
28-May-17 19:12 36.077238 -115.198328 265 4165ft 182kts
28-May-17 19:13 36.056754 -115.261612 202 5190ft 265kts
28-May-17 19:14 35.982838 -115.295386 193 7977ft 293kts
28-May-17 19:15 35.902405 -115.274720 162 10377ft 324kts
28-May-17 19:16 35.846726 -115.177830 109 11346ft 404kts
28-May-17 19:17 35.825471 -115.039307 84 13910ft 431kts
28-May-17 19:18 35.838203 -114.890317 83 16420ft 447kts
28-May-17 19:19 35.852043 -114.736048 83 18519ft 460kts
28-May-17 19:20 35.865961 -114.579141 83 20119ft 472kts
28-May-17 19:21 35.880149 -114.416646 83 21617ft 483kts
28-May-17 19:22 35.893792 -114.261867 83 23019ft 493kts
28-May-17 19:23 35.908170 -114.092544 83 24532ft 503kts
28-May-17 19:24 35.921963 -113.922493 87 26591ft 500kts
28-May-17 19:25 35.899827 -113.754223 101 28353ft 497kts
28-May-17 19:26 35.873328 -113.588314 101 29869ft 495kts
28-May-17 19:27 35.847714 -113.429718 101 31129ft 493kts
28-May-17 19:28 35.821755 -113.268113 102 32256ft 491kts
28-May-17 19:29 35.794845 -113.104082 102 33277ft 489kts
28-May-17 19:30 35.767848 -112.941315 102 34161ft 487kts
28-May-17 19:31 35.740625 -112.778628 102 34961ft 485kts
28-May-17 19:32 35.713395 -112.617305 102 35236ft 484kts
28-May-17 19:33 35.685878 -112.455675 102 35239ft 484kts
28-May-17 19:34 35.659508 -112.298083 102 35239ft 485kts
28-May-17 19:35 35.633149 -112.136649 102 35238ft 485kts
28-May-17 19:36 35.606425 -111.975203 102 35239ft 485kts
28-May-17 19:37 35.590953 -111.811341 92 35240ft 486kts
28-May-17 19:38 35.586121 -111.646345 92 35239ft 486kts
28-May-17 19:39 35.581383 -111.482572 92 35239ft 486kts
28-May-17 19:40 35.576710 -111.326476 92 35238ft 486kts
28-May-17 19:41 35.571868 -111.161813 92 35209ft 486kts
28-May-17 19:42 35.566401 -110.995571 92 35105ft 487kts
28-May-17 19:43 35.560728 -110.830147 92 35104ft 487kts
28-May-17 19:44 35.554801 -110.664065 92 35104ft 487kts
28-May-17 19:45 35.548651 -110.498011 92 35104ft 487kts
28-May-17 19:46 35.542432 -110.335816 92 35104ft 487kts
28-May-17 19:47 35.536233 -110.170251 93 35129ft 487kts
28-May-17 19:48 35.529658 -110.010156 93 35237ft 487kts
28-May-17 19:49 35.522602 -109.843980 93 35239ft 487kts
28-May-17 19:50 35.515350 -109.678600 93 35239ft 487kts
28-May-17 19:51 35.507836 -109.512449 93 35239ft 487kts
28-May-17 19:52 35.500183 -109.348252 93 35240ft 487kts
28-May-17 19:53 35.492688 -109.183767 93 35238ft 487kts
28-May-17 19:54 35.484534 -109.018187 93 35238ft 488kts
28-May-17 19:55 35.475477 -108.852709 99 35210ft 487kts
28-May-17 19:56 35.450938 -108.689478 100 35211ft 487kts
28-May-17 19:57 35.428251 -108.525856 99 35212ft 488kts
28-May-17 19:58 35.405385 -108.362265 99 35213ft 488kts
28-May-17 19:59 35.383702 -108.205836 100 35265ft 487kts
28-May-17 20:00 35.360469 -108.042685 100 35265ft 487kts
28-May-17 20:01 35.336936 -107.879261 100 35266ft 488kts
28-May-17 20:02 35.313196 -107.716003 100 35266ft 488kts
28-May-17 20:03 35.289216 -107.552711 100 35266ft 488kts
28-May-17 20:04 35.265425 -107.392256 102 35266ft 479kts
28-May-17 20:05 35.242349 -107.235511 102 35210ft 479kts
28-May-17 20:06 35.218231 -107.075550 102 35211ft 479kts
28-May-17 20:07 35.193924 -106.916112 102 35211ft 479kts
28-May-17 20:08 35.169354 -106.756432 102 35182ft 479kts
28-May-17 20:09 35.144641 -106.597291 102 35183ft 483kts
28-May-17 20:10 35.119365 -106.435948 102 35185ft 485kts
28-May-17 20:11 35.094555 -106.276824 103 35265ft 484kts
28-May-17 20:12 35.068935 -106.115684 103 35265ft 484kts
28-May-17 20:13 35.043084 -105.955021 103 35324ft 484kts
28-May-17 20:14 35.017000 -105.794366 103 35320ft 485kts
28-May-17 20:15 34.990356 -105.631751 103 35318ft 497kts
28-May-17 20:16 34.962652 -105.464056 102 35320ft 510kts
28-May-17 20:17 34.935266 -105.298371 103 35319ft 509kts
28-May-17 20:18 34.906839 -105.128227 103 35320ft 509kts
28-May-17 20:19 34.878561 -104.962263 103 35320ft 509kts
28-May-17 20:20 34.850025 -104.795635 103 35320ft 509kts
28-May-17 20:21 34.820581 -104.625128 103 35321ft 510kts
28-May-17 20:22 34.791280 -104.456911 103 35187ft 510kts
28-May-17 20:23 34.762287 -104.290280 103 35185ft 509kts
28-May-17 20:24 34.732668 -104.122310 104 35184ft 509kts
28-May-17 20:25 34.702645 -103.954254 104 35185ft 509kts
28-May-17 20:26 34.672470 -103.786783 104 35185ft 509kts
28-May-17 20:27 34.642054 -103.619402 104 35184ft 510kts
28-May-17 20:28 34.611337 -103.451683 104 35186ft 509kts
28-May-17 20:29 34.581395 -103.287942 104 35212ft 509kts
28-May-17 20:30 34.550441 -103.120969 104 35211ft 509kts
28-May-17 20:31 34.519142 -102.954152 104 35212ft 509kts
28-May-17 20:32 34.490418 -102.786553 99 35212ft 510kts
28-May-17 20:33 34.472167 -102.616427 98 35212ft 510kts
28-May-17 20:34 34.454456 -102.446785 98 35221ft 511kts
28-May-17 20:35 34.436987 -102.278337 98 36024ft 508kts
28-May-17 20:36 34.418921 -102.109022 99 36719ft 507kts
28-May-17 20:37 34.400601 -101.940231 99 37173ft 507kts
28-May-17 20:38 34.382092 -101.771908 99 37184ft 507kts
28-May-17 20:39 34.363284 -101.603062 99 37185ft 507kts
28-May-17 20:40 34.344259 -101.434415 99 37186ft 507kts
28-May-17 20:41 34.325693 -101.268815 99 37184ft 507kts
28-May-17 20:42 34.306349 -101.100996 99 37128ft 507kts
28-May-17 20:43 34.285976 -100.932433 99 37130ft 507kts
28-May-17 20:44 34.266016 -100.764154 99 37131ft 507kts
28-May-17 20:45 34.245928 -100.596465 99 37131ft 507kts
28-May-17 20:46 34.225574 -100.428535 99 37132ft 507kts
28-May-17 20:47 34.205800 -100.264302 100 37130ft 506kts
28-May-17 20:48 34.176398 -100.097872 104 37130ft 505kts
28-May-17 20:49 34.146671 -99.932874 104 37081ft 505kts
28-May-17 20:50 34.116628 -99.767286 104 37077ft 506kts
28-May-17 20:51 34.086352 -99.601752 104 37083ft 506kts
28-May-17 20:52 34.055917 -99.436677 104 37085ft 506kts
28-May-17 20:53 34.026551 -99.276801 104 37077ft 505kts
28-May-17 20:54 33.982140 -99.125103 113 36988ft 486kts
28-May-17 20:55 33.933794 -98.971251 112 33786ft 491kts
28-May-17 20:56 33.887494 -98.824471 112 31030ft 498kts
28-May-17 20:57 33.838598 -98.670266 112 29025ft 502kts
28-May-17 20:58 33.788818 -98.513915 112 27361ft 505kts
28-May-17 20:59 33.737917 -98.356683 112 25825ft 507kts
28-May-17 21:00 33.691353 -98.211134 113 24093ft 502kts
28-May-17 21:01 33.641575 -98.056040 113 20664ft 486kts
28-May-17 21:02 33.594896 -97.911348 113 16902ft 452kts
28-May-17 21:03 33.550707 -97.774978 112 13685ft 430kts
28-May-17 21:04 33.508993 -97.646755 112 10953ft 377kts
28-May-17 21:05 33.475227 -97.542639 112 10387ft 329kts
28-May-17 21:06 33.450206 -97.441062 92 10006ft 308kts
28-May-17 21:07 33.445883 -97.341750 93 8846ft 301kts
28-May-17 21:08 33.442430 -97.244145 94 7411ft 293kts
28-May-17 21:09 33.438721 -97.147908 94 5984ft 286kts
28-May-17 21:10 33.434995 -97.053758 94 5004ft 282kts
28-May-17 21:11 33.389800 -96.989512 152 4977ft 270kts
28-May-17 21:12 33.325322 -96.944742 153 4970ft 267kts
28-May-17 21:13 33.258846 -96.905436 173 4979ft 266kts
28-May-17 21:14 33.188979 -96.897662 201 4245ft 250kts
28-May-17 21:15 33.131473 -96.924315 202 4095ft 204kts
28-May-17 21:16 33.080557 -96.947409 202 3858ft 203kts
28-May-17 21:17 33.033548 -96.969719 202 3244ft 191kts
28-May-17 21:18 32.989620 -96.991624 202 2706ft 191kts
28-May-17 21:19 32.945449 -96.991737 114 2486ft 192kts
28-May-17 21:20 32.924887 -96.949430 135 2493ft 180kts
28-May-17 21:21 32.900933 -96.921011 134 1906ft 172kts
28-May-17 21:22 32.886253 -96.904095 134 1497ft 141kts
28-May-17 21:23 32.886253 -96.904095 134 1497ft 141kts
28-May-17 21:24 32.864495 -96.878801 135 914ft 139kts
28-May-17 21:25 32.844783 -96.855894 134 494ft 96kts
28-May-17 21:26 32.844090 -96.852713 38 494ft 10kts
28-May-17 21:27 32.845475 -96.850996 1 494ft 2kts
28-May-17 21:28 32.860868 -96.874594 135 818ft 139kts
28-May-17 21:29 32.853890 -96.866480 135 620ft 139kts
28-May-17 21:30 32.851956 -96.864194 135 562ft 139kts
28-May-17 21:31 32.843053 -96.853861 125 494ft 18kts
28-May-17 21:32 32.845541 -96.850994 1 494ft 0kts
28-May-17 21:33 32.845541 -96.850994 1 494ft 0kts
28-May-17 21:34 32.845541 -96.850994 1 494ft 0kts
28-May-17 21:35 32.845541 -96.850994 1 494ft 0kts

Navigation Log

Ident Type
Flight plan parsing failed, navigation log unavailable